createdAt,value
2022-12-29T00:00:14.992Z,21.08
2022-12-29T00:01:19.163Z,21.06
2022-12-29T00:02:23.387Z,21.07
2022-12-29T00:03:27.742Z,21.03
2022-12-29T00:04:32.523Z,21.05
2022-12-29T00:05:36.640Z,21.02
2022-12-29T00:06:40.842Z,21.02
2022-12-29T00:07:44.984Z,21.01
2022-12-29T00:08:49.125Z,21.03
2022-12-29T00:09:53.358Z,21.02
2022-12-29T00:10:57.461Z,21.01
2022-12-29T00:12:01.564Z,20.99
2022-12-29T00:13:05.715Z,21
2022-12-29T00:14:09.855Z,21
2022-12-29T00:15:13.969Z,20.97
2022-12-29T00:16:20.065Z,20.97
2022-12-29T00:17:24.378Z,20.98
2022-12-29T00:18:28.502Z,20.92
2022-12-29T00:19:32.667Z,20.98
2022-12-29T00:20:37.965Z,20.98
2022-12-29T00:21:42.074Z,20.96
2022-12-29T00:22:46.174Z,20.98
2022-12-29T00:23:50.272Z,20.95
2022-12-29T00:24:54.389Z,20.97
2022-12-29T00:25:58.524Z,20.93
2022-12-29T00:27:02.625Z,20.94
2022-12-29T00:28:07.378Z,20.93
2022-12-29T00:29:11.860Z,20.91
2022-12-29T00:30:16.413Z,20.93
2022-12-29T00:31:21.281Z,20.93
2022-12-29T00:32:25.508Z,20.92
2022-12-29T00:33:29.684Z,20.92
2022-12-29T00:34:34.803Z,20.91
2022-12-29T00:35:38.906Z,20.89
2022-12-29T00:36:43.096Z,20.89
2022-12-29T00:37:47.374Z,20.91
2022-12-29T00:38:51.456Z,20.9
2022-12-29T00:39:55.638Z,20.87
2022-12-29T00:40:59.777Z,20.89
2022-12-29T00:42:03.901Z,20.88
2022-12-29T00:43:07.995Z,20.88
2022-12-29T00:44:12.142Z,20.87
2022-12-29T00:45:17.200Z,20.87
2022-12-29T00:46:22.414Z,20.84
2022-12-29T00:47:26.672Z,20.86
2022-12-29T00:48:30.782Z,20.83
2022-12-29T00:49:34.920Z,20.85
2022-12-29T00:50:39.043Z,20.85
2022-12-29T00:51:43.148Z,20.84
2022-12-29T00:52:47.301Z,20.81
2022-12-29T00:53:51.382Z,20.83
2022-12-29T00:54:55.483Z,20.82
2022-12-29T00:55:59.628Z,20.8
2022-12-29T00:57:03.762Z,20.82
2022-12-29T00:58:07.922Z,20.81
2022-12-29T00:59:12.066Z,20.8
2022-12-29T01:00:16.352Z,20.78
2022-12-29T01:01:21.500Z,20.77
2022-12-29T01:02:26.114Z,20.79
2022-12-29T01:03:30.751Z,20.76
2022-12-29T01:04:35.019Z,20.78
2022-12-29T01:05:39.163Z,20.77
2022-12-29T01:06:43.257Z,20.77
2022-12-29T01:07:47.419Z,20.77
2022-12-29T01:08:51.527Z,20.79
2022-12-29T01:09:55.657Z,20.81
2022-12-29T01:10:59.771Z,20.82
2022-12-29T01:12:03.964Z,20.84
2022-12-29T01:13:08.094Z,20.88
2022-12-29T01:14:12.249Z,20.92
2022-12-29T01:15:16.402Z,20.93
2022-12-29T01:16:21.489Z,21
2022-12-29T01:17:25.722Z,21.05
2022-12-29T01:18:29.829Z,21.11
2022-12-29T01:19:33.922Z,21.12
2022-12-29T01:20:38.145Z,21.15
2022-12-29T01:21:42.261Z,21.2
2022-12-29T01:22:46.360Z,21.2
2022-12-29T01:23:50.540Z,21.26
2022-12-29T01:24:54.644Z,21.27
2022-12-29T01:25:58.779Z,21.29
2022-12-29T01:27:02.883Z,21.33
2022-12-29T01:28:07.018Z,21.33
2022-12-29T01:29:11.365Z,21.35
2022-12-29T01:30:16.419Z,21.39
2022-12-29T01:31:22.564Z,21.42
2022-12-29T01:32:27.057Z,21.42
2022-12-29T01:33:31.207Z,21.46
2022-12-29T01:34:36.491Z,21.47
2022-12-29T01:35:40.655Z,21.52
2022-12-29T01:36:44.774Z,21.53
2022-12-29T01:37:48.873Z,21.57
2022-12-29T01:38:52.996Z,21.58
2022-12-29T01:39:57.125Z,21.61
2022-12-29T01:41:01.226Z,21.62
2022-12-29T01:42:05.357Z,21.65
2022-12-29T01:43:10.525Z,21.64
2022-12-29T01:44:14.642Z,21.68
2022-12-29T01:45:20.905Z,21.73
2022-12-29T01:46:25.173Z,21.77
2022-12-29T01:47:29.396Z,21.8
2022-12-29T01:48:33.512Z,21.81
2022-12-29T01:49:37.663Z,21.84
2022-12-29T01:50:41.802Z,21.86
2022-12-29T01:51:45.917Z,21.91
2022-12-29T01:52:50.036Z,21.94
2022-12-29T01:53:54.161Z,21.96
2022-12-29T01:54:58.266Z,21.97
2022-12-29T01:56:02.402Z,21.91
2022-12-29T01:57:06.563Z,21.9
2022-12-29T01:58:11.306Z,21.92
2022-12-29T01:59:15.428Z,21.88
2022-12-29T02:00:20.713Z,21.88
2022-12-29T02:01:25.028Z,21.83
2022-12-29T02:02:33.138Z,21.81
2022-12-29T02:03:38.030Z,21.81
2022-12-29T02:04:42.390Z,21.79
2022-12-29T02:05:46.508Z,21.76
2022-12-29T02:06:50.623Z,21.73
2022-12-29T02:07:54.757Z,21.71
2022-12-29T02:08:58.881Z,21.69
2022-12-29T02:10:03.037Z,21.7
2022-12-29T02:11:07.288Z,21.72
2022-12-29T02:12:11.420Z,21.73
2022-12-29T02:13:16.003Z,21.76
2022-12-29T02:14:21.412Z,21.81
2022-12-29T02:15:25.503Z,21.84
2022-12-29T02:16:29.746Z,21.87
2022-12-29T02:17:34.092Z,21.9
2022-12-29T02:18:38.188Z,21.94
2022-12-29T02:19:42.287Z,21.92
2022-12-29T02:20:46.432Z,21.99
2022-12-29T02:21:50.569Z,22.02
2022-12-29T02:22:54.704Z,22.04
2022-12-29T02:23:58.814Z,22.05
2022-12-29T02:25:03.272Z,22.08
2022-12-29T02:26:07.448Z,22.08
2022-12-29T02:27:11.605Z,22.14
2022-12-29T02:28:15.730Z,22.15
2022-12-29T02:29:21.417Z,22.17
2022-12-29T02:30:25.531Z,22.14
2022-12-29T02:31:29.666Z,22.15
2022-12-29T02:32:33.912Z,22.13
2022-12-29T02:33:38.016Z,22.12
2022-12-29T02:34:42.270Z,22.08
2022-12-29T02:35:46.401Z,22.04
2022-12-29T02:36:50.556Z,22.03
2022-12-29T02:37:54.692Z,22.01
2022-12-29T02:38:58.834Z,21.99
2022-12-29T02:40:02.965Z,21.97
2022-12-29T02:41:07.165Z,21.95
2022-12-29T02:42:11.520Z,21.94
2022-12-29T02:43:16.493Z,21.94
2022-12-29T02:44:21.209Z,21.93
2022-12-29T02:45:25.329Z,21.98
2022-12-29T02:46:29.413Z,22.04
2022-12-29T02:47:33.514Z,22.07
2022-12-29T02:48:37.973Z,22.09
2022-12-29T02:49:42.131Z,22.13
2022-12-29T02:50:46.226Z,22.16
2022-12-29T02:51:50.324Z,22.2
2022-12-29T02:52:54.451Z,22.21
2022-12-29T02:53:58.654Z,22.23
2022-12-29T02:55:02.809Z,22.25
2022-12-29T02:56:06.911Z,22.22
2022-12-29T02:57:11.011Z,22.25
2022-12-29T02:58:16.374Z,22.24
2022-12-29T02:59:20.642Z,22.18
2022-12-29T03:00:24.766Z,22.16
2022-12-29T03:01:29.084Z,22.15
2022-12-29T03:02:34.107Z,22.14
2022-12-29T03:03:38.630Z,22.11
2022-12-29T03:04:42.766Z,22.12
2022-12-29T03:05:46.945Z,22.09
2022-12-29T03:06:51.032Z,22.09
2022-12-29T03:07:55.513Z,22.07
2022-12-29T03:08:59.625Z,22.08
2022-12-29T03:10:03.773Z,22.08
2022-12-29T03:11:07.927Z,22.1
2022-12-29T03:12:12.037Z,22.1
2022-12-29T03:13:16.624Z,22.16
2022-12-29T03:14:22.768Z,22.18
2022-12-29T03:15:26.928Z,22.21
2022-12-29T03:16:31.064Z,22.25
2022-12-29T03:17:35.876Z,22.27
2022-12-29T03:18:40.022Z,22.3
2022-12-29T03:19:44.151Z,22.33
2022-12-29T03:20:48.285Z,22.36
2022-12-29T03:21:52.410Z,22.35
2022-12-29T03:22:56.551Z,22.36
2022-12-29T03:24:00.663Z,22.34
2022-12-29T03:25:04.793Z,22.35
2022-12-29T03:26:09.597Z,22.31
2022-12-29T03:27:13.710Z,22.3
2022-12-29T03:28:20.584Z,22.29
2022-12-29T03:29:24.682Z,22.25
2022-12-29T03:30:28.813Z,22.22
2022-12-29T03:31:33.243Z,22.17
2022-12-29T03:32:37.341Z,22.16
2022-12-29T03:33:41.598Z,22.14
2022-12-29T03:34:45.765Z,22.13
2022-12-29T03:35:49.878Z,22.15
2022-12-29T03:36:54.028Z,22.12
2022-12-29T03:37:58.194Z,22.13
2022-12-29T03:39:02.353Z,22.18
2022-12-29T03:40:06.482Z,22.22
2022-12-29T03:41:10.601Z,22.23
2022-12-29T03:42:14.711Z,22.28
2022-12-29T03:43:20.606Z,22.31
2022-12-29T03:44:24.752Z,22.35
2022-12-29T03:45:28.891Z,22.36
2022-12-29T03:46:33.119Z,22.41
2022-12-29T03:47:37.566Z,22.41
2022-12-29T03:48:41.681Z,22.45
2022-12-29T03:49:45.807Z,22.48
2022-12-29T03:50:49.923Z,22.51
2022-12-29T03:51:54.069Z,22.55
2022-12-29T03:52:58.291Z,22.56
2022-12-29T03:54:02.473Z,22.62
2022-12-29T03:55:06.755Z,22.63
2022-12-29T03:56:11.576Z,22.63
2022-12-29T03:57:16.580Z,22.65
2022-12-29T03:58:21.353Z,22.66
2022-12-29T03:59:25.524Z,22.68
2022-12-29T04:00:29.673Z,22.66
2022-12-29T04:01:33.893Z,22.68
2022-12-29T04:02:39.051Z,22.72
2022-12-29T04:03:43.966Z,22.74
2022-12-29T04:04:48.416Z,22.76
2022-12-29T04:05:52.525Z,22.78
2022-12-29T04:06:56.644Z,22.8
2022-12-29T04:08:00.824Z,22.79
2022-12-29T04:09:04.997Z,22.77
2022-12-29T04:10:09.796Z,22.81
2022-12-29T04:11:14.063Z,22.84
2022-12-29T04:12:20.717Z,22.83
2022-12-29T04:13:24.878Z,22.84
2022-12-29T04:14:29.608Z,22.86
2022-12-29T04:15:33.766Z,22.84
2022-12-29T04:16:38.070Z,22.79
2022-12-29T04:17:42.337Z,22.8
2022-12-29T04:18:46.458Z,22.76
2022-12-29T04:19:50.631Z,22.73
2022-12-29T04:20:54.815Z,22.72
2022-12-29T04:21:58.920Z,22.71
2022-12-29T04:23:03.051Z,22.68
2022-12-29T04:24:07.268Z,22.63
2022-12-29T04:25:11.752Z,22.6
2022-12-29T04:26:16.697Z,22.57
2022-12-29T04:27:20.805Z,22.55
2022-12-29T04:28:24.911Z,22.52
2022-12-29T04:29:29.419Z,22.51
2022-12-29T04:30:33.541Z,22.49
2022-12-29T04:31:38.608Z,22.46
2022-12-29T04:32:42.952Z,22.44
2022-12-29T04:33:47.072Z,22.42
2022-12-29T04:34:51.200Z,22.36
2022-12-29T04:35:55.335Z,22.36
2022-12-29T04:36:59.465Z,22.35
2022-12-29T04:38:03.576Z,22.32
2022-12-29T04:39:07.738Z,22.3
2022-12-29T04:40:12.345Z,22.27
2022-12-29T04:41:16.900Z,22.27
2022-12-29T04:42:21.197Z,22.26
2022-12-29T04:43:25.320Z,22.23
2022-12-29T04:44:29.430Z,22.22
2022-12-29T04:45:33.552Z,22.16
2022-12-29T04:46:38.771Z,22.18
2022-12-29T04:47:43.196Z,22.17
2022-12-29T04:48:47.707Z,22.16
2022-12-29T04:49:51.853Z,22.12
2022-12-29T04:50:56.260Z,22.14
2022-12-29T04:52:00.602Z,22.12
2022-12-29T04:53:04.909Z,22.11
2022-12-29T04:54:09.033Z,22.09
2022-12-29T04:55:13.170Z,22.05
2022-12-29T04:56:17.783Z,22.04
2022-12-29T04:57:22.644Z,22.04
2022-12-29T04:58:26.781Z,22.02
2022-12-29T04:59:30.889Z,22.03
2022-12-29T05:00:34.995Z,22.02
2022-12-29T05:01:39.249Z,22.02
2022-12-29T05:02:44.462Z,21.98
2022-12-29T05:03:49.477Z,21.99
2022-12-29T05:04:53.774Z,21.96
2022-12-29T05:05:57.937Z,21.95
2022-12-29T05:07:02.046Z,21.95
2022-12-29T05:08:06.218Z,21.95
2022-12-29T05:09:10.377Z,21.94
2022-12-29T05:10:14.564Z,21.94
2022-12-29T05:11:20.574Z,21.92
2022-12-29T05:12:25.088Z,21.9
2022-12-29T05:13:29.375Z,21.9
2022-12-29T05:14:33.512Z,21.89
2022-12-29T05:15:37.646Z,21.88
2022-12-29T05:16:42.115Z,21.85
2022-12-29T05:17:46.269Z,21.85
2022-12-29T05:18:59.307Z,21.84
2022-12-29T05:20:03.579Z,21.83
2022-12-29T05:21:07.801Z,21.83
2022-12-29T05:22:12.049Z,21.8
2022-12-29T05:23:17.169Z,21.84
2022-12-29T05:24:22.909Z,21.83
2022-12-29T05:25:27.286Z,21.88
2022-12-29T05:26:31.612Z,21.9
2022-12-29T05:27:35.934Z,21.94
2022-12-29T05:28:40.345Z,21.98
2022-12-29T05:29:44.571Z,22.03
2022-12-29T05:30:48.774Z,22.09
2022-12-29T05:31:53.083Z,22.14
2022-12-29T05:32:57.368Z,22.21
2022-12-29T05:34:01.545Z,22.29
2022-12-29T05:35:05.765Z,22.34
2022-12-29T05:36:10.883Z,22.39
2022-12-29T05:37:15.106Z,22.42
2022-12-29T05:38:21.566Z,22.41
2022-12-29T05:39:25.753Z,22.42
2022-12-29T05:40:29.949Z,22.38
2022-12-29T05:41:35.042Z,22.4
2022-12-29T05:42:39.179Z,22.38
2022-12-29T05:43:43.298Z,22.37
2022-12-29T05:44:47.426Z,22.33
2022-12-29T05:45:51.578Z,22.32
2022-12-29T05:46:55.823Z,22.27
2022-12-29T05:48:00.256Z,22.29
2022-12-29T05:49:04.391Z,22.26
2022-12-29T05:50:08.515Z,22.23
2022-12-29T05:52:30.894Z,22.2
2022-12-29T05:53:35.789Z,22.22
2022-12-29T05:54:39.923Z,22.15
2022-12-29T05:55:48.462Z,22.16
2022-12-29T05:56:52.880Z,22.14
2022-12-29T05:57:57.074Z,22.12
2022-12-29T05:59:01.292Z,22.13
2022-12-29T06:00:05.439Z,22.02
2022-12-29T06:01:09.743Z,22.1
2022-12-29T06:02:14.144Z,22.08
2022-12-29T06:03:19.807Z,22.07
2022-12-29T06:04:24.628Z,22.05
2022-12-29T06:05:28.916Z,22.02
2022-12-29T06:06:33.190Z,22.04
2022-12-29T06:07:37.452Z,22.02
2022-12-29T06:08:41.640Z,22
2022-12-29T06:09:45.896Z,22
2022-12-29T06:10:50.191Z,21.97
2022-12-29T06:11:54.474Z,21.97
2022-12-29T06:12:58.746Z,21.94
2022-12-29T06:14:02.863Z,21.94
2022-12-29T06:15:07.195Z,21.94
2022-12-29T06:16:11.445Z,21.93
2022-12-29T06:17:15.887Z,21.9
2022-12-29T06:18:21.428Z,21.88
2022-12-29T06:19:25.646Z,21.9
2022-12-29T06:20:29.841Z,21.89
2022-12-29T06:21:34.013Z,21.88
2022-12-29T06:22:38.262Z,21.88
2022-12-29T06:23:42.495Z,21.87
2022-12-29T06:24:46.650Z,21.86
2022-12-29T06:25:50.859Z,21.85
2022-12-29T06:26:55.079Z,21.84
2022-12-29T06:27:59.248Z,21.82
2022-12-29T06:29:03.446Z,21.83
2022-12-29T06:30:07.663Z,21.82
2022-12-29T06:31:11.984Z,21.81
2022-12-29T06:32:16.554Z,21.8
2022-12-29T06:33:20.733Z,21.79
2022-12-29T06:34:24.945Z,21.78
2022-12-29T06:35:29.089Z,21.78
2022-12-29T06:36:33.269Z,21.78
2022-12-29T06:37:37.509Z,21.75
2022-12-29T06:38:41.635Z,21.75
2022-12-29T06:39:45.775Z,21.75
2022-12-29T06:40:49.928Z,21.75
2022-12-29T06:41:54.404Z,21.74
2022-12-29T06:42:58.844Z,21.73
2022-12-29T06:44:03.086Z,21.71
2022-12-29T06:45:07.196Z,21.69
2022-12-29T06:46:11.509Z,21.71
2022-12-29T06:47:16.437Z,21.7
2022-12-29T06:48:20.695Z,21.69
2022-12-29T06:49:24.969Z,21.68
2022-12-29T06:50:29.201Z,21.67
2022-12-29T06:51:33.413Z,21.63
2022-12-29T06:52:37.594Z,21.63
2022-12-29T06:53:41.852Z,21.64
2022-12-29T06:54:49.203Z,21.61
2022-12-29T06:55:53.439Z,21.63
2022-12-29T06:56:57.610Z,21.62
2022-12-29T06:58:01.781Z,21.61
2022-12-29T06:59:06.015Z,21.58
2022-12-29T07:00:10.486Z,21.6
2022-12-29T07:01:14.795Z,21.58
2022-12-29T07:02:19.606Z,21.57
2022-12-29T07:03:24.468Z,21.55
2022-12-29T07:04:29.034Z,21.57
2022-12-29T07:05:33.217Z,21.56
2022-12-29T07:06:37.581Z,21.55
2022-12-29T07:07:41.854Z,21.54
2022-12-29T07:08:46.217Z,21.52
2022-12-29T07:09:50.392Z,21.54
2022-12-29T07:10:54.571Z,21.52
2022-12-29T07:11:58.783Z,21.52
2022-12-29T07:13:03.091Z,21.5
2022-12-29T07:14:07.370Z,21.49
2022-12-29T07:15:11.617Z,21.5
2022-12-29T07:16:16.300Z,21.48
2022-12-29T07:17:21.544Z,21.5
2022-12-29T07:18:25.812Z,21.47
2022-12-29T07:19:30.185Z,21.47
2022-12-29T07:20:34.378Z,21.47
2022-12-29T07:21:38.617Z,21.47
2022-12-29T07:22:50.321Z,21.48
2022-12-29T07:23:54.536Z,21.48
2022-12-29T07:24:58.817Z,21.46
2022-12-29T07:26:03.052Z,21.44
2022-12-29T07:27:07.273Z,21.45
2022-12-29T07:28:11.470Z,21.43
2022-12-29T07:29:15.660Z,21.4
2022-12-29T07:30:20.506Z,21.41
2022-12-29T07:31:24.702Z,21.38
2022-12-29T07:32:29.061Z,21.37
2022-12-29T07:33:33.333Z,21.38
2022-12-29T07:34:38.068Z,21.38
2022-12-29T07:35:42.225Z,21.37
2022-12-29T07:36:46.515Z,21.37
2022-12-29T07:37:50.703Z,21.37
2022-12-29T07:38:54.946Z,21.33
2022-12-29T07:39:59.230Z,21.29
2022-12-29T07:41:03.514Z,21.32
2022-12-29T07:42:07.753Z,21.34
2022-12-29T07:43:11.936Z,21.33
2022-12-29T07:44:16.213Z,21.32
2022-12-29T07:45:21.784Z,21.31
2022-12-29T07:46:53.386Z,21.31
2022-12-29T07:48:01.527Z,21.31
2022-12-29T07:49:05.935Z,21.28
2022-12-29T07:50:10.265Z,21.28
2022-12-29T07:51:14.497Z,21.26
2022-12-29T07:52:18.743Z,21.27
2022-12-29T07:53:22.972Z,21.26
2022-12-29T07:54:27.280Z,21.23
2022-12-29T07:55:31.539Z,21.23
2022-12-29T07:56:35.811Z,21.25
2022-12-29T07:57:40.127Z,21.24
2022-12-29T07:58:44.458Z,21.22
2022-12-29T07:59:48.680Z,21.24
2022-12-29T08:00:52.909Z,21.24
2022-12-29T08:01:57.290Z,21.23
2022-12-29T08:03:01.896Z,21.22
2022-12-29T08:04:06.052Z,21.21
2022-12-29T08:05:10.513Z,21.19
2022-12-29T08:06:14.725Z,21.19
2022-12-29T08:07:18.835Z,21.18
2022-12-29T08:08:22.966Z,21.18
2022-12-29T08:09:27.256Z,21.17
2022-12-29T08:10:31.504Z,21.16
2022-12-29T08:11:35.633Z,21.13
2022-12-29T08:12:39.735Z,21.13
2022-12-29T08:13:43.850Z,21.16
2022-12-29T08:14:47.998Z,21.15
2022-12-29T08:15:52.122Z,21.13
2022-12-29T08:16:56.395Z,21.12
2022-12-29T08:18:00.513Z,21.13
2022-12-29T08:19:04.673Z,21.1
2022-12-29T08:20:08.849Z,21.12
2022-12-29T08:21:13.013Z,21.1
2022-12-29T08:22:17.120Z,21.11
2022-12-29T08:23:21.247Z,21.11
2022-12-29T08:24:25.992Z,21.08
2022-12-29T08:25:30.748Z,21.08
2022-12-29T08:26:34.904Z,21.1
2022-12-29T08:27:39.052Z,21.09
2022-12-29T08:28:43.160Z,21.09
2022-12-29T08:29:47.669Z,21.08
2022-12-29T08:30:51.882Z,21.08
2022-12-29T08:31:56.187Z,21.07
2022-12-29T08:33:00.348Z,21.07
2022-12-29T08:34:04.536Z,21.06
2022-12-29T08:35:08.663Z,21.06
2022-12-29T08:36:12.774Z,21.04
2022-12-29T08:37:16.905Z,21.07
2022-12-29T08:38:21.057Z,21.06
2022-12-29T08:39:25.183Z,21.05
2022-12-29T08:40:29.286Z,21.07
2022-12-29T08:41:33.468Z,21.05
2022-12-29T08:42:37.621Z,21.07
2022-12-29T08:43:41.767Z,21.06
2022-12-29T08:44:45.946Z,21.02
2022-12-29T08:45:50.135Z,21.04
2022-12-29T08:46:54.283Z,21.04
2022-12-29T08:47:58.577Z,21.04
2022-12-29T08:49:02.764Z,21.01
2022-12-29T08:50:06.898Z,21.02
2022-12-29T08:51:11.044Z,20.99
2022-12-29T08:52:15.172Z,21.01
2022-12-29T08:53:19.301Z,20.99
2022-12-29T08:54:23.440Z,21
2022-12-29T08:55:27.957Z,21
2022-12-29T08:56:32.075Z,21
2022-12-29T08:57:36.370Z,20.99
2022-12-29T08:58:40.491Z,20.99
2022-12-29T19:00:23.781Z,22.48
2022-12-29T19:01:28.375Z,22.47
2022-12-29T19:02:32.865Z,22.53
2022-12-29T19:03:37.017Z,22.54
2022-12-29T19:04:41.366Z,22.53
2022-12-29T19:05:45.482Z,22.51
2022-12-29T19:06:49.735Z,22.44
2022-12-29T19:07:53.872Z,22.47
2022-12-29T19:08:58.014Z,22.42
2022-12-29T19:10:02.117Z,22.4
2022-12-29T19:11:06.274Z,22.38
2022-12-29T19:12:10.404Z,22.38
2022-12-29T19:13:14.521Z,22.37
2022-12-29T19:14:18.727Z,22.3
2022-12-29T19:15:22.879Z,22.27
2022-12-29T19:16:27.170Z,22.2
2022-12-29T19:17:31.390Z,22.26
2022-12-29T19:18:44.916Z,22.26
2022-12-29T19:20:11.822Z,22.29
2022-12-29T19:21:15.931Z,22.31
2022-12-29T19:22:20.061Z,22.34
2022-12-29T19:23:24.203Z,22.37
2022-12-29T19:24:28.320Z,22.41
2022-12-29T19:25:32.437Z,22.4
2022-12-29T19:26:36.947Z,22.43
2022-12-29T19:27:41.290Z,22.45
2022-12-29T19:28:45.386Z,22.43
2022-12-29T19:29:49.554Z,22.41
2022-12-29T19:30:55.255Z,22.44
2022-12-29T19:32:01.476Z,22.43
2022-12-29T19:33:09.805Z,22.42
2022-12-29T19:34:14.023Z,22.42
2022-12-29T19:35:18.255Z,22.42
2022-12-29T19:36:22.348Z,22.39
2022-12-29T19:37:26.541Z,22.36
2022-12-29T19:38:30.703Z,22.32
2022-12-29T19:39:34.848Z,22.28
2022-12-29T19:40:38.972Z,22.25
2022-12-29T19:41:43.088Z,22.24
2022-12-29T19:42:47.250Z,22.24
2022-12-29T19:43:51.383Z,22.24
2022-12-29T19:44:55.508Z,22.2
2022-12-29T19:45:59.662Z,22.18
2022-12-29T19:47:03.972Z,22.19
2022-12-29T19:48:08.290Z,22.16
2022-12-29T19:49:12.401Z,22.13
2022-12-29T19:50:16.537Z,22.11
2022-12-29T19:51:20.734Z,22.1
2022-12-29T19:52:24.943Z,22.09
2022-12-29T19:53:29.237Z,22.07
2022-12-29T19:54:33.462Z,22.06
2022-12-29T19:55:37.667Z,22.05
2022-12-29T19:56:42.172Z,22.01
2022-12-29T19:57:46.353Z,22.02
2022-12-29T19:58:50.549Z,22.01
2022-12-29T19:59:54.687Z,21.99
2022-12-29T20:00:59.140Z,21.96
2022-12-29T20:02:03.615Z,21.95
2022-12-29T20:03:08.327Z,21.93
2022-12-29T20:04:13.399Z,21.94
2022-12-29T20:05:17.590Z,21.93
2022-12-29T20:06:21.810Z,21.91
2022-12-29T20:07:26.309Z,21.87
2022-12-29T20:08:30.471Z,21.88
2022-12-29T20:09:34.587Z,21.84
2022-12-29T20:10:38.842Z,21.85
2022-12-29T20:11:43.084Z,21.86
2022-12-29T20:12:47.228Z,21.85
2022-12-29T20:13:51.375Z,21.83
2022-12-29T20:14:55.629Z,21.83
2022-12-29T20:16:00.189Z,21.82
2022-12-29T20:17:11.078Z,21.81
2022-12-29T20:18:15.900Z,21.8
2022-12-29T20:19:21.688Z,21.79
2022-12-29T20:20:25.825Z,21.78
2022-12-29T20:21:29.964Z,21.77
2022-12-29T20:22:34.087Z,21.74
2022-12-29T20:23:38.209Z,21.73
2022-12-29T20:24:48.337Z,21.76
2022-12-29T20:26:28.270Z,21.72
2022-12-29T20:27:32.478Z,21.75
2022-12-29T20:28:36.584Z,21.72
2022-12-29T20:29:40.686Z,21.71
2022-12-29T20:30:44.805Z,21.73
2022-12-29T20:31:48.988Z,21.72
2022-12-29T20:32:53.315Z,21.71
2022-12-29T20:33:57.465Z,21.71
2022-12-29T20:35:01.565Z,21.7
2022-12-29T20:36:05.682Z,21.68
2022-12-29T20:37:09.809Z,21.66
2022-12-29T20:38:13.931Z,21.66
2022-12-29T20:39:18.086Z,21.67
2022-12-29T20:40:22.216Z,21.64
2022-12-29T20:41:26.358Z,21.64
2022-12-29T20:42:30.508Z,21.63
2022-12-29T20:43:34.672Z,21.62
2022-12-29T20:44:38.805Z,21.64
2022-12-29T20:45:43.189Z,21.6
2022-12-29T20:46:47.586Z,21.63
2022-12-29T20:47:51.861Z,21.61
2022-12-29T20:48:56.050Z,21.62
2022-12-29T20:50:00.218Z,21.59
2022-12-29T20:51:04.432Z,21.61
2022-12-29T20:52:08.572Z,21.6
2022-12-29T20:53:12.706Z,21.6
2022-12-29T20:54:16.924Z,21.6
2022-12-29T20:55:21.055Z,21.59
2022-12-29T20:56:25.180Z,21.59
2022-12-29T20:57:39.281Z,21.58
2022-12-29T20:59:28.290Z,21.58
2022-12-29T21:00:32.816Z,21.57
2022-12-29T21:01:37.193Z,21.54
2022-12-29T21:02:41.834Z,21.56
2022-12-29T21:03:46.491Z,21.54
2022-12-29T21:05:22.552Z,21.57
2022-12-29T21:06:29.259Z,21.58
2022-12-29T21:07:33.421Z,21.56
2022-12-29T21:08:37.587Z,21.57
2022-12-29T21:09:41.760Z,21.6
2022-12-29T21:10:45.922Z,21.6
2022-12-29T21:11:50.064Z,21.6
2022-12-29T21:12:54.172Z,21.59
2022-12-29T21:14:01.156Z,21.6
2022-12-29T21:15:05.607Z,21.6
2022-12-29T21:16:09.916Z,21.57
2022-12-29T21:17:14.207Z,21.59
2022-12-29T21:18:18.349Z,21.58
2022-12-29T21:19:22.453Z,21.59
2022-12-29T21:20:26.575Z,21.58
2022-12-29T21:21:30.784Z,21.59
2022-12-29T21:22:34.925Z,21.56
2022-12-29T21:23:39.153Z,21.56
2022-12-29T21:24:43.486Z,21.58
2022-12-29T21:25:47.746Z,21.58
2022-12-29T21:26:51.874Z,21.54
2022-12-29T21:27:55.975Z,21.56
2022-12-29T21:29:00.116Z,21.56
2022-12-29T21:30:04.321Z,21.52
2022-12-29T21:31:08.546Z,21.52
2022-12-29T21:32:12.956Z,21.54
2022-12-29T21:33:17.131Z,21.54
2022-12-29T21:34:21.260Z,21.53
2022-12-29T21:35:25.429Z,21.54
2022-12-29T21:36:29.522Z,21.53
2022-12-29T21:37:33.738Z,21.53
2022-12-29T21:38:37.911Z,21.49
2022-12-29T21:39:42.070Z,21.5
2022-12-29T21:40:46.226Z,21.52
2022-12-29T21:41:50.383Z,21.52
2022-12-29T21:42:54.503Z,21.51
2022-12-29T21:43:58.661Z,21.48
2022-12-29T21:45:02.796Z,21.49
2022-12-29T21:46:10.211Z,21.49
2022-12-29T21:47:14.525Z,21.46
2022-12-29T21:48:18.710Z,21.49
2022-12-29T21:49:22.843Z,21.49
2022-12-29T21:50:26.979Z,21.46
2022-12-29T21:51:31.152Z,21.48
2022-12-29T21:52:35.265Z,21.48
2022-12-29T21:53:39.492Z,21.47
2022-12-29T21:54:43.705Z,21.45
2022-12-29T21:55:47.891Z,21.46
2022-12-29T21:56:52.015Z,21.46
2022-12-29T21:57:56.438Z,21.45
2022-12-29T21:59:00.638Z,21.45
2022-12-29T22:00:05.073Z,21.47
2022-12-29T22:01:09.277Z,21.46
2022-12-29T22:02:13.877Z,21.48
2022-12-29T22:03:23.280Z,21.48
2022-12-29T22:04:28.338Z,21.44
2022-12-29T22:05:32.458Z,21.44
2022-12-29T22:06:36.634Z,21.45
2022-12-29T22:07:40.740Z,21.44
2022-12-29T22:08:44.855Z,21.44
2022-12-29T22:09:49.015Z,21.46
2022-12-29T22:10:53.173Z,21.45
2022-12-29T22:11:57.300Z,21.45
2022-12-29T22:13:01.421Z,21.45
2022-12-29T22:14:05.744Z,21.45
2022-12-29T22:15:09.867Z,21.44
2022-12-29T22:16:14.284Z,21.42
2022-12-29T22:17:19.571Z,21.43
2022-12-29T22:18:31.893Z,21.44
2022-12-29T22:19:36.001Z,21.43
2022-12-29T22:20:40.194Z,21.42
2022-12-29T22:21:44.317Z,21.41
2022-12-29T22:22:48.433Z,21.37
2022-12-29T22:23:52.662Z,21.38
2022-12-29T22:24:57.440Z,21.41
2022-12-29T22:26:01.587Z,21.39
2022-12-29T22:27:06.092Z,21.39
2022-12-29T22:28:10.208Z,21.4
2022-12-29T22:29:14.344Z,21.4
2022-12-29T22:30:18.456Z,21.4
2022-12-29T22:31:22.592Z,21.38
2022-12-29T22:32:27.179Z,21.38
2022-12-29T22:33:31.298Z,21.38
2022-12-29T22:34:35.562Z,21.37
2022-12-29T22:35:39.693Z,21.37
2022-12-29T22:36:43.832Z,21.33
2022-12-29T22:37:48.005Z,21.33
2022-12-29T22:38:52.231Z,21.34
2022-12-29T22:39:56.402Z,21.33
2022-12-29T22:41:00.531Z,21.3
2022-12-29T22:42:04.796Z,21.33
2022-12-29T22:43:13.027Z,21.33
2022-12-29T22:44:17.357Z,21.32
2022-12-29T22:45:21.484Z,21.3
2022-12-29T22:46:25.674Z,21.32
2022-12-29T22:47:30.078Z,21.31
2022-12-29T22:48:34.209Z,21.3
2022-12-29T22:49:38.342Z,21.29
2022-12-29T22:50:42.449Z,21.29
2022-12-29T22:51:46.570Z,21.29
2022-12-29T22:52:50.686Z,21.28
2022-12-29T22:53:54.808Z,21.26
2022-12-29T22:55:03.226Z,21.27
2022-12-29T22:56:10.907Z,21.27
2022-12-29T22:57:15.026Z,21.26
2022-12-29T22:58:19.142Z,21.25
2022-12-29T22:59:23.273Z,21.25
2022-12-29T23:00:27.411Z,21.25
2022-12-29T23:01:31.938Z,21.24
2022-12-29T23:02:36.762Z,21.24
2022-12-29T23:03:41.571Z,21.24
2022-12-29T23:05:02.726Z,21.23
2022-12-29T23:06:09.361Z,21.23
2022-12-29T23:07:13.640Z,21.21
2022-12-29T23:08:17.726Z,21.19
2022-12-29T23:09:21.879Z,21.21
2022-12-29T23:10:26.062Z,21.18
2022-12-29T23:11:30.188Z,21.19
2022-12-29T23:12:34.346Z,21.2
2022-12-29T23:13:38.501Z,21.19
2022-12-29T23:14:42.591Z,21.19
2022-12-29T23:15:46.821Z,21.18
2022-12-29T23:16:51.159Z,21.19
2022-12-29T23:17:55.289Z,21.17
2022-12-29T23:18:59.421Z,21.18
2022-12-29T23:20:03.631Z,21.15
2022-12-29T23:21:07.749Z,21.14
2022-12-29T23:22:11.916Z,21.16
2022-12-29T23:23:16.043Z,21.14
2022-12-29T23:24:20.139Z,21.16
2022-12-29T23:25:24.400Z,21.15
2022-12-29T23:26:28.658Z,21.13
2022-12-29T23:27:32.815Z,21.13
2022-12-29T23:28:36.977Z,21.14
2022-12-29T23:29:41.131Z,21.14
2022-12-29T23:30:45.277Z,21.11
2022-12-29T23:31:49.450Z,21.13
2022-12-29T23:32:53.896Z,21.13
2022-12-29T23:33:57.992Z,21.13
2022-12-29T23:35:02.118Z,21.1
2022-12-29T23:36:06.251Z,21.12
2022-12-29T23:37:10.396Z,21.08
2022-12-29T23:38:14.616Z,21.11
2022-12-29T23:39:18.883Z,21.09
2022-12-29T23:40:22.997Z,21.11
2022-12-29T23:41:27.151Z,21.1
2022-12-29T23:42:31.324Z,21.11
2022-12-29T23:43:35.539Z,21.1
2022-12-29T23:44:39.903Z,21.08
2022-12-29T23:45:49.048Z,21.1
2022-12-29T23:46:54.793Z,21.1
2022-12-29T23:47:59.139Z,21.09
2022-12-29T23:49:03.260Z,21.07
2022-12-29T23:50:07.489Z,21.07
2022-12-29T23:51:11.627Z,21.09
2022-12-29T23:52:15.751Z,21.05
2022-12-29T23:53:19.857Z,21.08
2022-12-29T23:54:23.983Z,21.06
2022-12-29T23:55:28.093Z,21.07
2022-12-29T23:56:32.210Z,21.05
2022-12-29T23:57:36.353Z,21.06